< Typhoon 200205 2002 Season Typhoon 200207 >
Typhoon 200206 (CHATAAN)
General InformationTrack Information on Google MapsDetailed Wind InformationList of All Images || NewsDisaster Info.ResourceGoogle EarthGE AnimationAtom FeedGeoJSON
Detalied Best Track (Time Zone = UTC)
Year Month Day Hour Lat. Long. Pressure (hPa) Wind (kt) Class Image Chart
2002 6 28 00 4.7 154.0 1006 0 2 Image Chart
2002 6 28 06 5.0 153.5 1004 0 2 Image Chart
2002 6 28 12 5.0 153.8 1004 0 2 Image Chart
2002 6 28 18 5.0 154.7 1002 0 2 Image Chart
2002 6 29 00 5.0 155.5 998 35 3 Image Chart
2002 6 29 06 5.2 155.6 992 40 3 Image Chart
2002 6 29 12 5.3 155.7 992 45 3 Image Chart
2002 6 29 18 5.4 155.8 990 45 3 Image Chart
2002 6 30 00 5.5 155.9 985 50 4 Image Chart
2002 6 30 06 5.6 155.9 985 50 4 Image Chart
2002 6 30 12 5.8 155.4 985 50 4 Image Chart
2002 6 30 18 6.7 155.0 985 50 4 Image Chart
2002 7 1 00 6.8 154.8 985 50 4 Image Chart
2002 7 1 06 6.9 154.5 985 50 4 Image Chart
2002 7 1 12 7.0 154.2 985 50 4 Image Chart
2002 7 1 18 7.1 153.9 985 50 4 Image Chart
2002 7 2 00 7.2 153.4 990 45 3 Image Chart
2002 7 2 06 7.0 152.9 992 40 3 Image Chart
2002 7 2 12 6.8 151.7 994 40 3 Image Chart
2002 7 2 18 7.0 151.2 994 40 3 Image Chart
2002 7 3 00 7.8 150.9 992 40 3 Image Chart
2002 7 3 06 8.4 150.3 990 45 3 Image Chart
2002 7 3 12 9.3 149.6 990 45 3 Image Chart
2002 7 3 18 9.9 149.0 985 50 4 Image Chart
2002 7 4 00 10.6 148.7 985 50 4 Image Chart
2002 7 4 06 11.9 147.9 985 50 4 Image Chart
2002 7 4 12 12.6 146.6 975 60 4 Image Chart
2002 7 4 18 13.0 145.6 965 70 5 Image Chart
2002 7 5 00 13.8 144.7 960 75 5 Image Chart
2002 7 5 06 14.2 143.8 955 75 5 Image Chart
2002 7 5 12 14.7 142.6 955 75 5 Image Chart
2002 7 5 18 15.3 141.8 945 85 5 Image Chart
2002 7 6 00 15.9 141.0 945 85 5 Image Chart
2002 7 6 06 16.7 140.1 945 85 5 Image Chart
2002 7 6 12 17.2 139.4 945 85 5 Image Chart
2002 7 6 18 17.8 138.3 945 85 5 Image Chart
2002 7 7 00 18.8 137.3 940 85 5 Image Chart
2002 7 7 06 19.5 136.0 940 85 5 Image Chart
2002 7 7 12 20.1 134.9 935 90 5 Image Chart
2002 7 7 18 20.8 134.1 935 90 5 Image Chart
2002 7 8 00 21.6 133.7 930 95 5 Image Chart
2002 7 8 03 22.2 133.4 930 95 5 Image Chart
2002 7 8 06 22.8 133.2 930 95 5 Image Chart
2002 7 8 09 23.4 133.1 930 95 5 Image Chart
2002 7 8 12 24.0 132.9 930 95 5 Image Chart
2002 7 8 15 24.7 132.6 930 95 5 Image Chart
2002 7 8 18 25.3 132.4 930 95 5 Image Chart
2002 7 8 21 26.0 132.5 935 90 5 Image Chart
2002 7 9 00 26.5 132.4 940 85 5 Image Chart
2002 7 9 03 27.1 132.4 940 85 5 Image Chart
2002 7 9 06 27.7 132.4 950 75 5 Image Chart
2002 7 9 09 28.1 132.6 950 75 5 Image Chart
2002 7 9 12 28.3 132.9 955 70 5 Image Chart
2002 7 9 15 28.5 133.3 955 70 5 Image Chart
2002 7 9 18 29.2 133.8 960 65 5 Image Chart
2002 7 9 21 30.2 134.4 965 60 4 Image Chart
2002 7 10 00 30.6 134.9 965 60 4 Image Chart
2002 7 10 03 31.3 135.0 965 60 4 Image Chart
2002 7 10 06 32.0 136.4 965 60 4 Image Chart
2002 7 10 09 33.3 137.5 965 60 4 Image Chart
2002 7 10 12 34.2 138.8 970 55 4 Image Chart
2002 7 10 15 34.9 139.7 970 55 4 Image Chart
2002 7 10 18 36.1 141.1 970 55 4 Image Chart
2002 7 10 21 38.2 141.8 975 55 4 Image Chart
2002 7 11 00 39.0 142.3 975 55 4 Image Chart
2002 7 11 03 39.7 142.6 980 50 4 Image Chart
2002 7 11 06 41.4 143.4 980 45 3 Image Chart
2002 7 11 09 42.4 144.1 980 45 3 Image Chart
2002 7 11 12 43.0 144.5 980 45 3 Image Chart
2002 7 11 15 44.2 144.1 984 0 6 Image Chart
2002 7 11 18 44.8 143.6 986 0 6 Image Chart
2002 7 12 00 45.9 143.6 990 0 6 Image Chart
2002 7 12 06 46.6 143.6 992 0 6 Image Chart
2002 7 12 12 47.5 143.5 996 0 6 Image Chart
2002 7 12 18 47.8 143.4 996 0 6 Image Chart
2002 7 13 00 48.0 143.3 998 0 6 Image Chart
Japan Meteorological Agency Best Track Data | Correction Date : 2006-01-18
< Typhoon 200205 2002 Season Typhoon 200207 >

Help